Time;durP1;ratioP1;P1;durP2;ratioP2;P2;SDS_P1;SDS_P2;PMS_P1;PMS_P2;Temp;Humidity;BMP_temperature;BMP_pressure;BME280_temperature;BME280_humidity;BME280_pressure;Samples;Min_cycle;Max_cycle;Signal;HPM_P1;HPM_P2
2021/07/28 11:26:00;;;;;;;9.40;3.63;;;28.40;48.40;;;;;;5931778;23;20024;31
2021/07/28 11:28:27;;;;;;;17.52;4.43;;;28.50;47.10;;;;;;4817394;29;20131;-70
2021/07/28 11:31:05;;;;;;;10.40;3.85;;;28.50;47.60;;;;;;4804931;29;20038;-68
2021/07/28 11:33:32;;;;;;;9.82;3.90;;;28.50;47.80;;;;;;4822487;29;20360;-68
2021/07/28 11:35:59;;;;;;;20.35;4.45;;;28.50;48.00;;;;;;4821921;29;20079;-69
2021/07/28 11:38:32;;;;;;;55.63;5.68;;;28.50;47.50;;;;;;4822117;29;20038;-69
2021/07/28 11:41:00;;;;;;;7.80;3.78;;;28.50;47.80;;;;;;4822544;29;20114;-69
2021/07/28 11:43:34;;;;;;;9.13;3.97;;;28.50;47.10;;;;;;4804105;29;20438;-69
2021/07/28 11:46:05;;;;;;;20.73;4.80;;;28.40;46.60;;;;;;4804155;29;20391;-69
2021/07/28 11:48:41;;;;;;;21.85;4.15;;;28.30;47.80;;;;;;4815554;29;20091;-69
2021/07/28 11:51:09;;;;;;;11.57;4.25;;;28.40;47.90;;;;;;4822237;29;20099;-69
2021/07/28 11:53:36;;;;;;;25.27;5.70;;;28.40;48.00;;;;;;4822426;29;20042;-69
2021/07/28 11:56:08;;;;;;;17.20;4.20;;;28.40;47.60;;;;;;4822066;29;20030;-69
2021/07/28 11:58:39;;;;;;;9.80;4.10;;;28.30;47.70;;;;;;4822310;29;20070;-69
2021/07/28 12:01:25;;;;;;;6.35;3.72;;;28.30;48.10;;;;;;4822429;29;20034;-69
2021/07/28 12:04:03;;;;;;;10.30;3.70;;;28.30;48.00;;;;;;4821961;29;20443;-69
2021/07/28 12:06:34;;;;;;;7.25;3.95;;;28.40;48.10;;;;;;4821912;29;20187;-69
2021/07/28 12:09:18;;;;;;;7.10;3.72;;;28.30;48.50;;;;;;4820960;29;20403;-69
2021/07/28 12:12:01;;;;;;;12.65;3.67;;;28.40;48.60;;;;;;4822065;29;20046;-69
2021/07/28 12:14:30;;;;;;;12.68;4.13;;;28.40;48.30;;;;;;4821769;29;20034;-69
2021/07/28 12:17:04;;;;;;;29.60;4.25;;;28.40;48.40;;;;;;4821661;29;20122;-69
2021/07/28 12:19:34;;;;;;;70.50;5.05;;;28.40;47.90;;;;;;4821855;29;20035;-69
2021/07/28 12:22:01;;;;;;;6.43;3.50;;;28.30;48.00;;;;;;4824033;29;20035;-69
2021/07/28 12:24:31;;;;;;;8.93;3.95;;;28.40;48.10;;;;;;4822394;29;20102;-70
2021/07/28 12:27:25;;;;;;;13.65;4.18;;;28.40;48.30;;;;;;4838372;29;20126;-71
2021/07/28 12:30:01;;;;;;;8.98;3.60;;;28.40;48.40;;;;;;4840710;29;20669;-71
2021/07/28 12:32:43;;;;;;;5.75;3.65;;;28.30;48.40;;;;;;4840574;29;20676;-72
2021/07/28 12:35:15;;;;;;;11.60;3.88;;;28.30;48.00;;;;;;4840617;29;20022;-70
2021/07/28 12:37:41;;;;;;;14.57;3.70;;;28.30;48.50;;;;;;4840928;29;20026;-70
2021/07/28 12:40:08;;;;;;;73.57;6.78;;;28.30;48.40;;;;;;4840636;29;20514;-70
2021/07/28 12:42:34;;;;;;;7.32;3.65;;;28.30;49.00;;;;;;4842299;29;20117;-70
2021/07/28 12:45:00;;;;;;;17.88;4.07;;;28.30;48.80;;;;;;4843911;29;20117;-71
2021/07/28 12:47:26;;;;;;;36.97;4.40;;;28.20;48.70;;;;;;4843659;29;20034;-71
2021/07/28 12:49:52;;;;;;;30.60;5.10;;;28.30;48.10;;;;;;4843912;29;20034;-70
2021/07/28 12:52:18;;;;;;;31.50;5.00;;;28.20;48.60;;;;;;4858695;29;20430;-70
2021/07/28 12:54:44;;;;;;;7.90;3.40;;;28.10;48.50;;;;;;4862531;29;20029;-71
2021/07/28 12:57:09;;;;;;;27.42;4.15;;;28.00;49.00;;;;;;4862253;29;20569;-71
2021/07/28 12:59:35;;;;;;;9.25;3.90;;;28.00;49.00;;;;;;4862458;29;20052;-71
2021/07/28 13:02:03;;;;;;;5.88;3.50;;;27.90;49.50;;;;;;4862395;29;20037;-72
2021/07/28 13:04:29;;;;;;;19.58;4.00;;;27.90;49.00;;;;;;4851573;29;20056;-71
2021/07/28 13:07:10;;;;;;;30.75;4.90;;;27.80;49.70;;;;;;4842490;29;20034;-73
2021/07/28 13:09:36;;;;;;;5.38;3.65;;;27.80;49.30;;;;;;4843467;29;20041;-73
2021/07/28 13:12:02;;;;;;;28.38;4.50;;;27.70;49.30;;;;;;4843707;29;20026;-73
2021/07/28 13:14:28;;;;;;;4.50;3.30;;;27.70;49.30;;;;;;4843253;29;20049;-73
2021/07/28 13:16:54;;;;;;;37.63;5.18;;;27.60;49.10;;;;;;4857859;29;20033;-73
2021/07/28 13:19:19;;;;;;;28.02;4.28;;;27.60;49.30;;;;;;4843226;29;20108;-73
2021/07/28 13:21:45;;;;;;;15.23;4.10;;;27.50;49.40;;;;;;4843221;29;20030;-73
2021/07/28 13:24:11;;;;;;;8.30;3.72;;;27.50;49.60;;;;;;4843235;29;20046;-73
2021/07/28 13:26:36;;;;;;;5.72;3.97;;;27.50;50.60;;;;;;4843028;29;20048;-73
2021/07/28 13:29:02;;;;;;;35.72;4.35;;;27.50;49.60;;;;;;4843122;29;20038;-73
2021/07/28 13:31:28;;;;;;;11.38;3.50;;;27.50;49.60;;;;;;4843289;29;20026;-73
2021/07/28 13:33:54;;;;;;;6.35;3.75;;;27.40;49.50;;;;;;4843173;29;20113;-73
2021/07/28 13:36:19;;;;;;;34.10;4.57;;;27.40;49.90;;;;;;4843246;29;20026;-73
2021/07/28 13:38:45;;;;;;;26.27;4.80;;;27.40;49.60;;;;;;4843230;29;20498;-73
2021/07/28 13:41:11;;;;;;;193.05;13.90;;;27.40;49.80;;;;;;4843363;29;20439;-73
2021/07/28 13:43:36;;;;;;;10.50;3.42;;;27.40;50.00;;;;;;4842806;29;20099;-73
2021/07/28 13:46:02;;;;;;;6.45;3.80;;;27.40;49.80;;;;;;4843243;29;20030;-73
2021/07/28 13:48:30;;;;;;;43.75;5.97;;;27.40;49.10;;;;;;4842797;29;20036;-73
2021/07/28 13:50:55;;;;;;;17.73;4.50;;;27.40;48.70;;;;;;4843198;29;20034;-73
2021/07/28 13:53:21;;;;;;;13.68;4.22;;;27.40;49.40;;;;;;4841978;29;20512;-73
2021/07/28 13:55:47;;;;;;;41.85;5.00;;;27.40;49.10;;;;;;4842882;29;20055;-73
2021/07/28 13:58:13;;;;;;;7.10;3.97;;;27.40;49.60;;;;;;4842610;29;20596;-73
2021/07/28 14:00:38;;;;;;;19.60;4.47;;;27.40;49.20;;;;;;4842598;29;20085;-73
2021/07/28 14:03:04;;;;;;;11.07;4.18;;;27.40;49.50;;;;;;4842452;29;20049;-73
2021/07/28 14:05:30;;;;;;;16.98;4.45;;;27.30;49.80;;;;;;4842326;29;20038;-73
2021/07/28 14:07:56;;;;;;;11.88;4.18;;;27.30;50.40;;;;;;4842534;29;20041;-73
2021/07/28 14:10:23;;;;;;;34.53;5.07;;;27.30;50.70;;;;;;4842537;29;20037;-74
2021/07/28 14:12:48;;;;;;;7.57;4.07;;;27.40;50.90;;;;;;4842433;29;20037;-74
2021/07/28 14:15:14;;;;;;;49.78;6.30;;;27.40;50.50;;;;;;4842312;29;20030;-73
2021/07/28 14:17:40;;;;;;;9.38;4.05;;;27.40;50.80;;;;;;4842530;29;20038;-73
2021/07/28 14:20:06;;;;;;;10.23;4.63;;;27.40;50.90;;;;;;4842596;29;20451;-74
2021/07/28 14:22:34;;;;;;;8.55;4.10;;;27.40;50.60;;;;;;4842279;29;20152;-74
2021/07/28 14:24:59;;;;;;;12.65;4.30;;;27.40;50.60;;;;;;4842102;29;20030;-74
2021/07/28 14:27:25;;;;;;;15.20;3.90;;;27.30;50.90;;;;;;4841733;29;20056;-73
2021/07/28 14:29:51;;;;;;;7.90;3.80;;;27.30;50.90;;;;;;4842371;29;20045;-74
2021/07/28 14:32:17;;;;;;;6.18;3.65;;;27.30;51.10;;;;;;4842153;29;20387;-73
2021/07/28 14:34:42;;;;;;;18.20;4.40;;;27.30;50.90;;;;;;4842082;29;20034;-74
2021/07/28 14:37:09;;;;;;;34.17;5.13;;;27.20;50.90;;;;;;4842166;29;20025;-73
2021/07/28 14:39:35;;;;;;;8.13;3.60;;;27.20;50.90;;;;;;4842133;29;20324;-74
2021/07/28 14:42:01;;;;;;;7.72;3.63;;;27.20;50.70;;;;;;4841873;29;20105;-74
2021/07/28 14:44:26;;;;;;;89.90;7.05;;;27.10;50.60;;;;;;4841645;29;20471;-74
2021/07/28 14:46:53;;;;;;;7.10;4.00;;;27.10;50.90;;;;;;4841803;29;20482;-74
2021/07/28 14:49:20;;;;;;;5.93;3.67;;;27.20;50.90;;;;;;4842009;29;20037;-73
2021/07/28 14:51:45;;;;;;;21.48;4.85;;;27.10;50.60;;;;;;4841844;29;20026;-73
2021/07/28 14:54:13;;;;;;;4.65;3.65;;;27.10;50.80;;;;;;4871410;29;20056;-74
2021/07/28 14:56:39;;;;;;;4.68;3.40;;;27.10;50.60;;;;;;4841663;29;20041;-73
2021/07/28 14:59:05;;;;;;;6.97;3.67;;;27.10;50.50;;;;;;4841707;29;20604;-73
2021/07/28 15:01:31;;;;;;;8.95;4.65;;;27.10;50.70;;;;;;4841915;29;20105;-73
2021/07/28 15:03:58;;;;;;;45.90;5.13;;;27.10;50.80;;;;;;4841916;29;20050;-73
2021/07/28 15:06:24;;;;;;;32.30;5.20;;;27.00;51.10;;;;;;4841420;29;20030;-73
2021/07/28 15:08:50;;;;;;;5.55;3.80;;;27.00;51.30;;;;;;4841601;29;20041;-73
2021/07/28 15:11:15;;;;;;;6.75;4.03;;;27.00;51.30;;;;;;4841940;29;20022;-73
2021/07/28 15:13:41;;;;;;;8.73;4.47;;;27.00;51.60;;;;;;4841385;29;20042;-73
2021/07/28 15:16:07;;;;;;;23.80;4.35;;;27.00;51.60;;;;;;4841745;29;20038;-74
2021/07/28 15:18:33;;;;;;;10.38;3.88;;;26.90;51.70;;;;;;4841656;29;20040;-73
2021/07/28 15:21:01;;;;;;;5.47;3.40;;;26.90;51.60;;;;;;4841486;29;20050;-74
2021/07/28 15:23:29;;;;;;;6.88;3.83;;;26.90;51.70;;;;;;4841434;29;20066;-74
2021/07/28 15:25:55;;;;;;;9.77;3.85;;;27.00;51.90;;;;;;4841252;29;20034;-73
2021/07/28 15:28:21;;;;;;;5.88;3.60;;;26.90;52.10;;;;;;4841147;29;20045;-73
2021/07/28 15:30:48;;;;;;;9.98;3.83;;;26.90;51.80;;;;;;4841659;29;20041;-73
2021/07/28 15:33:14;;;;;;;7.93;4.20;;;26.90;52.10;;;;;;4841264;29;20109;-73
2021/07/28 15:35:39;;;;;;;4.97;3.65;;;26.90;52.30;;;;;;4841145;29;20026;-73
2021/07/28 15:38:05;;;;;;;9.77;4.00;;;26.90;52.40;;;;;;4841153;29;20087;-73
2021/07/28 15:40:31;;;;;;;37.67;4.20;;;26.90;52.20;;;;;;4841233;29;20090;-74
2021/07/28 15:42:57;;;;;;;6.47;3.92;;;26.90;52.30;;;;;;4841316;29;20034;-74
2021/07/28 15:45:24;;;;;;;12.52;4.40;;;26.90;52.30;;;;;;4841048;29;20051;-74
2021/07/28 15:47:54;;;;;;;9.07;4.10;;;26.80;52.10;;;;;;4841104;29;20037;-74
2021/07/28 15:50:19;;;;;;;7.10;3.63;;;26.80;52.20;;;;;;4855264;29;20569;-73
2021/07/28 15:52:45;;;;;;;9.48;3.92;;;26.80;52.20;;;;;;4841094;29;20117;-73
2021/07/28 15:55:12;;;;;;;7.82;3.65;;;26.80;52.20;;;;;;4841181;29;20101;-73
2021/07/28 15:57:38;;;;;;;5.85;3.65;;;26.80;52.40;;;;;;4841132;29;20064;-73
2021/07/28 16:00:06;;;;;;;5.95;4.05;;;26.80;52.30;;;;;;4841312;29;20431;-73
2021/07/28 16:02:32;;;;;;;9.88;4.20;;;26.80;52.70;;;;;;4840967;29;20517;-73
2021/07/28 16:04:58;;;;;;;4.40;3.47;;;26.80;52.90;;;;;;4841068;29;20067;-73
2021/07/28 16:07:27;;;;;;;103.13;9.63;;;26.80;53.00;;;;;;4840790;29;20517;-73
2021/07/28 16:09:53;;;;;;;13.52;5.15;;;26.80;53.40;;;;;;4841087;29;20091;-73
2021/07/28 16:12:19;;;;;;;8.93;4.32;;;26.80;53.40;;;;;;4840913;29;20046;-73
2021/07/28 16:15:00;;;;;;;9.13;3.95;;;26.80;53.80;;;;;;4840861;29;20054;-70
2021/07/28 16:18:01;;;;;;;5.65;4.07;;;26.70;54.50;;;;;;4842368;29;20060;-71
2021/07/28 16:20:28;;;;;;;6.82;3.58;;;26.70;54.60;;;;;;4843944;29;20045;-74
2021/07/28 16:23:10;;;;;;;8.68;3.83;;;26.70;54.40;;;;;;4844492;29;20454;-78
2021/07/28 16:25:41;;;;;;;7.80;4.05;;;26.70;54.40;;;;;;4849518;29;20037;-79
2021/07/28 16:28:07;;;;;;;12.85;4.40;;;26.80;54.50;;;;;;4846575;29;20495;-82
2021/07/28 16:30:35;;;;;;;30.83;4.68;;;26.80;54.00;;;;;;4844263;29;20040;-82
2021/07/28 16:33:02;;;;;;;7.93;4.03;;;26.80;54.60;;;;;;4844244;29;20034;-81
2021/07/28 16:35:28;;;;;;;9.75;4.45;;;26.80;54.00;;;;;;4844086;29;20065;-75
2021/07/28 16:37:55;;;;;;;27.90;5.20;;;26.80;53.90;;;;;;4844096;29;20022;-73
2021/07/28 16:40:25;;;;;;;10.27;4.38;;;26.80;54.30;;;;;;4842874;29;20038;-76
2021/07/28 16:42:51;;;;;;;22.23;4.07;;;26.90;55.10;;;;;;4844405;29;20030;-73
2021/07/28 16:45:18;;;;;;;10.40;3.95;;;26.90;54.50;;;;;;4844171;29;20071;-74
2021/07/28 16:47:44;;;;;;;7.95;3.97;;;26.90;53.90;;;;;;4843838;29;20109;-75
2021/07/28 16:50:12;;;;;;;14.05;4.20;;;26.90;54.70;;;;;;4844039;29;20121;-75
2021/07/28 16:52:38;;;;;;;5.07;3.92;;;26.80;54.40;;;;;;4843820;29;20034;-70
2021/07/28 16:55:04;;;;;;;48.00;5.55;;;26.90;54.00;;;;;;4854569;29;20124;-72
2021/07/28 16:57:30;;;;;;;12.40;4.22;;;26.80;53.20;;;;;;4861954;29;20113;-75
2021/07/28 16:59:55;;;;;;;10.43;4.40;;;26.80;52.90;;;;;;4862519;29;20426;-75
2021/07/28 17:02:21;;;;;;;8.20;4.00;;;26.80;52.90;;;;;;4862187;29;20556;-75
2021/07/28 17:04:47;;;;;;;12.85;4.22;;;26.80;53.10;;;;;;4862168;29;20048;-75
2021/07/28 17:07:13;;;;;;;8.98;4.20;;;26.80;53.10;;;;;;4862070;29;20033;-75
2021/07/28 17:09:39;;;;;;;16.15;4.53;;;26.80;53.40;;;;;;4861936;29;20033;-75
2021/07/28 17:12:05;;;;;;;12.52;4.30;;;26.80;53.20;;;;;;4862353;29;20482;-75
2021/07/28 17:14:31;;;;;;;6.47;4.03;;;26.70;53.10;;;;;;4861975;29;20038;-75
2021/07/28 17:16:56;;;;;;;15.00;4.82;;;26.70;53.20;;;;;;4862023;29;20104;-75
2021/07/28 17:19:22;;;;;;;9.70;4.40;;;26.70;53.60;;;;;;4861830;29;20162;-74
2021/07/28 17:21:48;;;;;;;5.22;4.07;;;26.70;54.00;;;;;;4861842;29;20088;-75
2021/07/28 17:24:14;;;;;;;29.13;5.50;;;26.70;54.10;;;;;;4861652;29;20038;-73
2021/07/28 17:26:40;;;;;;;10.75;4.10;;;26.70;54.50;;;;;;4848993;29;20046;-73
2021/07/28 17:29:05;;;;;;;6.22;4.28;;;26.70;54.30;;;;;;4842205;29;20030;-74
2021/07/28 17:31:31;;;;;;;9.48;4.50;;;26.60;54.20;;;;;;4843313;29;20066;-76
2021/07/28 17:33:58;;;;;;;6.10;4.25;;;26.60;54.40;;;;;;4843071;29;20057;-73
2021/07/28 17:36:26;;;;;;;7.57;4.03;;;26.60;54.20;;;;;;4826382;29;20037;-73
2021/07/28 17:38:52;;;;;;;6.80;4.13;;;26.60;54.00;;;;;;4843145;29;20030;-72
2021/07/28 17:41:18;;;;;;;14.07;5.00;;;26.50;54.20;;;;;;4842805;29;20090;-74
2021/07/28 17:43:45;;;;;;;8.70;4.40;;;26.50;54.50;;;;;;4842572;29;20033;-73
2021/07/28 17:46:13;;;;;;;8.70;4.45;;;26.50;54.80;;;;;;4843204;29;20037;-73
2021/07/28 17:48:39;;;;;;;6.40;4.72;;;26.50;54.90;;;;;;4842862;29;20026;-73
2021/07/28 17:51:05;;;;;;;7.93;3.97;;;26.50;55.30;;;;;;4843103;29;20385;-73
2021/07/28 17:53:31;;;;;;;6.20;4.10;;;26.50;55.20;;;;;;4842691;29;20100;-73
2021/07/28 17:55:59;;;;;;;6.22;4.25;;;26.40;55.30;;;;;;4842853;29;20106;-72
2021/07/28 17:58:25;;;;;;;5.50;4.28;;;26.40;55.60;;;;;;4842429;29;20033;-72
2021/07/28 18:00:51;;;;;;;6.07;3.85;;;26.40;55.60;;;;;;4842725;29;20030;-73
2021/07/28 18:03:37;;;;;;;13.48;4.35;;;26.40;55.70;;;;;;4842505;29;20034;-73
2021/07/28 18:06:08;;;;;;;6.30;4.40;;;26.30;55.80;;;;;;4835712;29;20045;-74
2021/07/28 18:08:34;;;;;;;7.30;3.80;;;26.30;55.80;;;;;;4837178;29;20495;-73
2021/07/28 18:11:03;;;;;;;10.80;4.60;;;26.20;55.80;;;;;;4824113;29;20057;-73
2021/07/28 18:13:28;;;;;;;9.77;4.07;;;26.20;55.90;;;;;;4823865;29;20037;-73
2021/07/28 18:15:54;;;;;;;8.13;4.68;;;26.20;56.00;;;;;;4823907;29;20026;-73
2021/07/28 18:18:20;;;;;;;10.07;3.97;;;26.10;55.90;;;;;;4823815;29;20391;-73
2021/07/28 18:20:45;;;;;;;12.23;4.35;;;26.10;56.30;;;;;;4823635;29;20510;-73
2021/07/28 18:23:11;;;;;;;8.55;4.28;;;26.10;56.10;;;;;;4823592;29;20031;-73
2021/07/28 18:25:37;;;;;;;19.90;4.95;;;26.00;56.30;;;;;;4823351;29;20043;-73
2021/07/28 18:28:04;;;;;;;18.42;5.35;;;26.00;56.80;;;;;;4836250;29;20141;-73
2021/07/28 18:30:29;;;;;;;23.90;4.80;;;26.00;57.20;;;;;;4841758;29;20030;-73
2021/07/28 18:32:57;;;;;;;9.63;4.57;;;26.00;57.50;;;;;;4841907;29;20382;-73
2021/07/28 18:35:24;;;;;;;14.77;4.55;;;25.90;57.80;;;;;;4841929;29;20379;-73
2021/07/28 18:38:00;;;;;;;5.65;4.20;;;25.80;58.30;;;;;;4841788;29;20030;-73
2021/07/28 18:40:27;;;;;;;7.68;4.60;;;25.60;59.00;;;;;;4823518;29;20117;-73
2021/07/28 18:42:56;;;;;;;7.53;4.50;;;25.50;59.60;;;;;;4838172;29;20064;-73
2021/07/28 18:45:22;;;;;;;;;;;25.40;60.80;;;;;;4842455;29;20183;-74
2021/07/28 18:47:48;;;;;;;8.63;4.00;;;25.40;62.70;;;;;;4841744;29;20058;-74
2021/07/28 18:50:13;;;;;;;8.25;4.90;;;25.40;62.40;;;;;;4842010;29;20094;-74
2021/07/28 18:52:39;;;;;;;12.82;4.25;;;25.40;63.10;;;;;;4841731;29;20427;-74
2021/07/28 18:55:06;;;;;;;8.23;4.35;;;25.30;63.40;;;;;;4841429;29;20030;-73
2021/07/28 18:57:32;;;;;;;10.25;4.13;;;25.20;64.10;;;;;;4841360;29;20037;-74
2021/07/28 18:59:59;;;;;;;6.30;4.15;;;25.20;64.30;;;;;;4841426;29;20042;-73
2021/07/28 19:02:25;;;;;;;8.35;4.28;;;25.00;64.20;;;;;;4841580;29;20036;-73
2021/07/28 19:04:51;;;;;;;8.07;3.90;;;24.80;64.30;;;;;;4841265;29;20094;-74
2021/07/28 19:07:17;;;;;;;7.72;4.20;;;24.70;63.90;;;;;;4841243;29;20030;-74
2021/07/28 19:09:43;;;;;;;5.22;3.70;;;24.70;64.10;;;;;;4841236;29;20036;-74
2021/07/28 19:12:09;;;;;;;5.65;3.60;;;24.60;64.40;;;;;;4841095;29;20058;-73
2021/07/28 19:14:36;;;;;;;6.40;4.00;;;24.50;64.80;;;;;;4840868;29;20046;-75
2021/07/28 19:17:02;;;;;;;8.45;3.83;;;24.40;65.10;;;;;;4840926;29;20030;-75
2021/07/28 19:19:28;;;;;;;6.38;3.70;;;24.40;65.10;;;;;;4840852;29;20113;-74
2021/07/28 19:21:53;;;;;;;9.52;4.13;;;24.30;65.40;;;;;;4841262;29;20022;-74
2021/07/28 19:24:21;;;;;;;4.38;3.78;;;24.20;65.50;;;;;;4840848;29;20094;-76
2021/07/28 19:26:47;;;;;;;7.63;3.78;;;24.10;65.40;;;;;;4840535;29;20086;-76
2021/07/28 19:29:13;;;;;;;5.93;3.97;;;24.00;66.50;;;;;;4840893;29;20034;-76
2021/07/28 19:31:39;;;;;;;9.82;3.80;;;23.90;66.00;;;;;;4840713;29;20446;-76
2021/07/28 19:34:05;;;;;;;9.40;4.03;;;23.80;66.30;;;;;;4841165;29;20029;-76
2021/07/28 19:36:32;;;;;;;12.20;4.65;;;23.70;66.50;;;;;;4843206;29;20604;-76
2021/07/28 19:39:00;;;;;;;8.93;4.13;;;23.50;66.90;;;;;;4842317;29;20129;-76
2021/07/28 19:41:25;;;;;;;9.00;4.25;;;23.40;67.30;;;;;;4840983;29;20025;-76
2021/07/28 19:43:51;;;;;;;9.55;4.18;;;23.30;67.20;;;;;;4840983;29;20038;-77
2021/07/28 19:46:17;;;;;;;5.72;4.32;;;23.30;67.30;;;;;;4840821;29;20439;-75
2021/07/28 19:48:43;;;;;;;8.10;4.18;;;23.20;67.50;;;;;;4840439;29;20028;-75
2021/07/28 19:51:09;;;;;;;11.10;4.25;;;23.10;67.80;;;;;;4840974;29;20026;-75
2021/07/28 19:53:35;;;;;;;8.43;4.20;;;23.00;68.00;;;;;;4844015;29;20022;-75
2021/07/28 19:56:01;;;;;;;4.93;4.43;;;22.90;68.00;;;;;;4844300;29;20074;-75
2021/07/28 19:58:27;;;;;;;8.52;4.03;;;22.80;68.00;;;;;;4844354;29;20032;-75
2021/07/28 20:00:53;;;;;;;7.00;4.38;;;22.80;68.00;;;;;;4844254;29;20037;-75
2021/07/28 20:03:20;;;;;;;6.78;4.88;;;22.80;68.00;;;;;;4844424;29;20073;-75
2021/07/28 20:05:46;;;;;;;7.57;4.50;;;22.70;68.10;;;;;;4844092;29;20036;-75
2021/07/28 20:08:12;;;;;;;7.93;4.85;;;22.70;68.20;;;;;;4844154;29;20026;-75
2021/07/28 20:10:40;;;;;;;7.00;4.72;;;22.60;68.40;;;;;;4844247;29;20049;-76
2021/07/28 20:13:06;;;;;;;9.20;4.95;;;22.50;68.90;;;;;;4841971;29;20109;-77
2021/07/28 20:15:32;;;;;;;8.05;4.80;;;22.40;69.30;;;;;;4844036;29;20100;-77
2021/07/28 20:18:00;;;;;;;7.93;5.30;;;22.30;69.30;;;;;;4844082;29;20509;-75
2021/07/28 20:20:27;;;;;;;7.65;4.60;;;22.20;69.80;;;;;;4844023;29;20041;-76
2021/07/28 20:22:53;;;;;;;6.72;4.45;;;22.20;69.40;;;;;;4843991;29;20092;-76
2021/07/28 20:25:20;;;;;;;7.85;4.93;;;22.10;69.60;;;;;;4843920;29;20064;-76
2021/07/28 20:27:46;;;;;;;6.15;4.53;;;22.10;69.50;;;;;;4843564;29;20046;-75
2021/07/28 20:30:16;;;;;;;6.82;3.95;;;22.10;69.20;;;;;;4844068;29;20037;-77
2021/07/28 20:32:43;;;;;;;;;;;22.10;69.40;;;;;;4844032;29;20506;-77
2021/07/28 20:35:11;;;;;;;5.70;4.15;;;22.10;69.50;;;;;;4843803;29;20273;-81
2021/07/28 20:37:38;;;;;;;5.75;4.55;;;22.00;69.20;;;;;;4843687;29;20025;-79
2021/07/28 20:40:05;;;;;;;9.18;4.28;;;22.10;70.20;;;;;;4843613;29;20121;-80
2021/07/28 20:42:33;;;;;;;6.10;4.68;;;22.10;70.50;;;;;;4843866;29;20148;-80
2021/07/28 20:44:59;;;;;;;5.82;4.50;;;22.00;69.50;;;;;;4843437;29;20046;-79
2021/07/28 20:47:25;;;;;;;7.30;4.47;;;21.90;69.70;;;;;;4843619;29;20025;-80
2021/07/28 20:49:51;;;;;;;5.72;4.18;;;21.80;70.10;;;;;;4843509;29;20078;-79
2021/07/28 20:52:17;;;;;;;8.50;4.50;;;21.80;70.00;;;;;;4843487;29;20030;-78
2021/07/28 20:54:47;;;;;;;6.43;4.13;;;21.70;70.00;;;;;;4843878;29;20041;-79
2021/07/28 20:57:13;;;;;;;7.80;4.65;;;21.60;70.40;;;;;;4844059;29;20030;-85
2021/07/28 20:59:40;;;;;;;7.90;4.53;;;21.50;70.60;;;;;;4845258;29;20060;-80
2021/07/28 21:02:09;;;;;;;6.10;4.35;;;21.50;70.30;;;;;;4851664;29;20028;-87
2021/07/28 21:04:36;;;;;;;6.55;4.80;;;21.40;70.60;;;;;;4852776;29;20046;-86
2021/07/28 21:07:02;;;;;;;9.35;4.57;;;21.20;71.30;;;;;;4846293;29;20033;-80
2021/07/28 21:09:28;;;;;;;8.07;4.60;;;21.00;71.60;;;;;;4853038;29;20025;-82
2021/07/28 21:11:54;;;;;;;8.38;4.70;;;21.00;71.70;;;;;;4852083;29;20321;-81
2021/07/28 21:14:20;;;;;;;7.13;3.83;;;20.90;71.90;;;;;;4845625;29;20114;-80
2021/07/28 21:16:45;;;;;;;8.57;4.82;;;20.70;72.40;;;;;;4853447;29;20033;-81
2021/07/28 21:19:12;;;;;;;6.15;4.20;;;20.60;72.60;;;;;;4848356;29;20034;-82
2021/07/28 21:21:38;;;;;;;6.20;4.40;;;20.60;72.40;;;;;;4849391;29;20506;-82
2021/07/28 21:24:08;;;;;;;7.80;4.28;;;20.70;72.40;;;;;;4851809;29;20124;-81
2021/07/28 21:26:34;;;;;;;11.18;4.63;;;20.50;72.90;;;;;;4845564;29;20048;-83
2021/07/28 21:29:00;;;;;;;7.20;5.05;;;20.30;74.30;;;;;;4842696;29;20034;-81
2021/07/28 21:31:26;;;;;;;9.55;4.22;;;20.40;73.20;;;;;;4843134;29;20026;-80
2021/07/28 21:33:55;;;;;;;9.05;4.70;;;20.40;72.90;;;;;;4843040;29;20028;-83
2021/07/28 21:36:21;;;;;;;7.35;4.55;;;20.40;72.80;;;;;;4843334;29;20127;-82
2021/07/28 21:38:47;;;;;;;9.18;5.22;;;20.30;72.80;;;;;;4843163;29;20026;-80
2021/07/28 21:41:14;;;;;;;6.13;4.15;;;20.30;72.90;;;;;;4843134;29;20037;-80
2021/07/28 21:43:40;;;;;;;7.35;4.53;;;20.20;73.00;;;;;;4842622;29;20098;-78
2021/07/28 21:46:09;;;;;;;9.32;4.20;;;20.00;73.40;;;;;;4837783;29;20037;-77
2021/07/28 21:48:36;;;;;;;7.38;3.90;;;19.80;73.90;;;;;;4843144;29;20076;-78
2021/07/28 21:51:10;;;;;;;6.18;4.68;;;19.80;74.20;;;;;;4842925;29;20081;-78
2021/07/28 21:53:36;;;;;;;7.63;4.50;;;19.70;74.10;;;;;;4826907;29;20030;-77
2021/07/28 21:56:12;;;;;;;8.57;4.43;;;19.70;74.20;;;;;;4842640;29;20041;-78
2021/07/28 21:58:48;;;;;;;5.72;3.97;;;19.60;74.50;;;;;;4842868;29;20407;-79
2021/07/28 22:01:24;;;;;;;6.20;4.55;;;19.60;74.60;;;;;;4842950;29;20037;-78
2021/07/28 22:03:51;;;;;;;6.72;4.60;;;19.60;74.50;;;;;;4842512;29;20038;-78
2021/07/28 22:06:18;;;;;;;7.80;4.40;;;19.60;74.70;;;;;;4842547;29;20045;-77
2021/07/28 22:08:46;;;;;;;6.90;4.30;;;19.50;74.80;;;;;;4842720;29;20034;-78
2021/07/28 22:11:13;;;;;;;9.02;4.57;;;19.50;75.00;;;;;;4842720;29;20030;-78
2021/07/28 22:13:41;;;;;;;6.78;4.15;;;19.40;75.20;;;;;;4842210;29;20037;-78
2021/07/28 22:16:12;;;;;;;8.20;4.45;;;19.30;75.70;;;;;;4841858;29;20049;-78
2021/07/28 22:18:41;;;;;;;6.43;4.68;;;19.30;76.20;;;;;;4842631;29;20155;-78
2021/07/28 22:21:09;;;;;;;12.10;5.18;;;19.20;76.60;;;;;;4842446;29;20486;-79
2021/07/28 22:23:35;;;;;;;6.90;4.70;;;19.10;76.70;;;;;;4842583;29;20041;-78
2021/07/28 22:26:14;;;;;;;7.78;5.13;;;19.10;76.80;;;;;;4841982;29;20479;-77
2021/07/28 22:28:41;;;;;;;7.07;5.20;;;19.10;77.20;;;;;;4842473;29;20090;-84
2021/07/28 22:31:08;;;;;;;7.03;4.68;;;19.00;77.30;;;;;;4842690;29;20037;-83
2021/07/28 22:33:34;;;;;;;11.20;5.45;;;19.00;77.30;;;;;;4842184;29;20076;-82
2021/07/28 22:35:59;;;;;;;8.40;5.22;;;19.00;77.50;;;;;;4842045;29;20030;-75
2021/07/28 22:38:26;;;;;;;10.55;5.32;;;18.90;77.50;;;;;;4842432;29;20025;-76
2021/07/28 22:40:51;;;;;;;7.70;5.45;;;18.80;78.50;;;;;;4841957;29;20057;-75
2021/07/28 22:43:19;;;;;;;6.93;5.00;;;18.70;78.60;;;;;;4842107;29;20628;-75
2021/07/28 22:45:46;;;;;;;7.00;4.50;;;18.70;78.40;;;;;;4841593;29;20042;-75
2021/07/28 22:56:09;;;;;;;8.43;5.75;;;18.30;81.50;;;;;;4841746;29;20037;-76
2021/07/28 22:58:36;;;;;;;8.18;5.20;;;18.30;81.80;;;;;;4841947;29;20037;-76
2021/07/28 23:08:56;;;;;;;7.35;5.55;;;18.30;82.50;;;;;;4841492;29;20159;-75
2021/07/28 23:11:21;;;;;;;8.93;6.07;;;18.20;83.30;;;;;;4841791;29;20112;-75
2021/07/28 23:13:47;;;;;;;9.82;6.03;;;18.20;83.80;;;;;;4841319;29;20034;-76
2021/07/28 23:16:13;;;;;;;9.20;5.88;;;18.20;83.80;;;;;;4841736;29;20033;-75
2021/07/28 23:18:39;;;;;;;10.00;6.53;;;18.20;84.00;;;;;;4841279;29;20490;-75
2021/07/28 23:21:08;;;;;;;7.97;6.20;;;18.20;84.00;;;;;;4841246;29;20042;-76
2021/07/28 23:23:34;;;;;;;9.85;6.78;;;18.20;84.20;;;;;;4825396;29;20079;-76
2021/07/28 23:26:00;;;;;;;10.25;6.82;;;18.20;85.20;;;;;;4840981;29;20033;-76
2021/07/28 23:28:26;;;;;;;11.35;6.07;;;18.10;86.20;;;;;;4841331;29;20448;-76
2021/07/28 23:30:52;;;;;;;12.57;6.70;;;18.00;87.20;;;;;;4841070;29;20038;-75
2021/07/28 23:33:18;;;;;;;10.35;6.50;;;18.00;87.50;;;;;;4841285;29;20033;-75
2021/07/28 23:35:44;;;;;;;9.07;6.43;;;17.90;88.10;;;;;;4841103;29;20062;-75
2021/07/28 23:38:10;;;;;;;9.23;6.50;;;17.80;89.20;;;;;;4824952;29;20490;-75
2021/07/28 23:40:35;;;;;;;8.23;6.57;;;17.70;90.00;;;;;;4841424;29;20036;-75
2021/07/28 23:43:01;;;;;;;9.05;6.97;;;17.70;90.40;;;;;;4841324;29;20030;-75
2021/07/28 23:45:27;;;;;;;8.70;6.60;;;17.70;90.70;;;;;;4841289;29;20458;-75
2021/07/28 23:47:52;;;;;;;11.70;7.07;;;17.60;91.10;;;;;;4841001;29;20467;-75
2021/07/28 23:50:18;;;;;;;11.02;6.05;;;17.60;91.60;;;;;;4841346;29;20038;-75
2021/07/28 23:52:44;;;;;;;9.52;6.43;;;17.60;92.10;;;;;;4840953;29;20022;-75
2021/07/28 23:55:10;;;;;;;10.55;7.40;;;17.50;92.90;;;;;;4841171;29;20125;-75
2021/07/28 23:57:36;;;;;;;10.50;7.00;;;17.50;93.60;;;;;;4841090;29;20030;-74
